Time;durP1;ratioP1;P1;durP2;ratioP2;P2;SDS_P1;SDS_P2;PMS_P1;PMS_P2;Temp;Humidity;BMP_temperature;BMP_pressure;BME280_temperature;BME280_humidity;BME280_pressure;Samples;Min_cycle;Max_cycle;Signal;HPM_P1;HPM_P2
2022/11/05 00:17:15;;;;;;;16.52;9.95;;;;;;;7.02;100.00;101215.00;5009957;28;20038;-81
2022/11/05 00:19:40;;;;;;;21.92;8.75;;;;;;;7.00;100.00;101216.06;5010075;28;20033;-80
2022/11/05 00:27:34;;;;;;;14.98;8.52;;;;;;;6.92;100.00;101221.84;5002609;28;20049;-78
2022/11/05 00:30:03;;;;;;;17.55;8.98;;;;;;;6.87;100.00;101229.09;5003958;28;20730;-78
2022/11/05 00:32:29;;;;;;;19.27;8.95;;;;;;;6.80;100.00;101231.38;5006858;28;20090;-79
2022/11/05 00:34:54;;;;;;;15.93;10.60;;;;;;;6.78;100.00;101240.97;4992847;28;20022;-80
2022/11/05 00:37:20;;;;;;;19.42;10.20;;;;;;;6.80;100.00;101240.88;5010175;28;20030;-81
2022/11/05 00:39:45;;;;;;;19.58;8.88;;;;;;;6.75;100.00;101240.41;5011130;28;20025;-81
2022/11/05 00:45:00;;;;;;;19.08;9.98;;;;;;;6.73;100.00;101245.66;5009179;28;20035;-78
2022/11/05 00:50:10;;;;;;;17.20;9.77;;;;;;;6.71;100.00;101237.25;5019876;28;20102;-78
2022/11/05 00:52:55;;;;;;;15.43;8.68;;;;;;;6.70;100.00;101245.09;5009437;28;20380;-79
2022/11/05 00:55:28;;;;;;;16.38;9.43;;;;;;;6.64;100.00;101241.22;5011066;28;20501;-80
2022/11/05 00:57:54;;;;;;;16.00;9.02;;;;;;;6.63;100.00;101237.84;4991726;28;20037;-79
2022/11/05 01:00:20;;;;;;;18.27;8.55;;;;;;;6.61;100.00;101239.72;5008522;28;20041;-76
2022/11/05 01:02:46;;;;;;;13.40;8.23;;;;;;;6.56;100.00;101243.59;5007897;28;20038;-78
2022/11/05 01:05:12;;;;;;;12.63;8.50;;;;;;;6.54;100.00;101255.78;5021883;28;20053;-79
2022/11/05 01:07:37;;;;;;;14.32;8.32;;;;;;;6.51;100.00;101258.59;5008914;28;20045;-79
2022/11/05 01:10:03;;;;;;;14.48;8.38;;;;;;;6.48;100.00;101254.50;4993687;28;20407;-80
2022/11/05 01:12:30;;;;;;;15.93;8.00;;;;;;;6.49;100.00;101263.03;4990527;28;20042;-79
2022/11/05 01:14:56;;;;;;;17.27;8.35;;;;;;;6.51;100.00;101256.00;5004942;28;20502;-79
2022/11/05 01:17:21;;;;;;;18.85;9.00;;;;;;;6.48;100.00;101267.38;4997424;28;20136;-79
2022/11/05 01:19:47;;;;;;;13.13;8.27;;;;;;;6.50;100.00;101262.09;4991819;28;20032;-79
2022/11/05 01:22:12;;;;;;;11.00;6.88;;;;;;;6.47;100.00;101273.44;5009249;28;20038;-79
2022/11/05 01:24:38;;;;;;;14.48;7.50;;;;;;;6.48;100.00;101282.84;4990279;28;20030;-80
2022/11/05 01:27:03;;;;;;;13.55;7.05;;;;;;;6.47;100.00;101281.19;4991904;28;20115;-80
2022/11/05 01:29:28;;;;;;;12.25;7.53;;;;;;;6.49;100.00;101281.88;4989376;28;20057;-78
2022/11/05 01:31:54;;;;;;;10.73;6.80;;;;;;;6.50;100.00;101287.84;4988560;28;20046;-79
2022/11/05 01:34:19;;;;;;;13.98;6.68;;;;;;;6.49;100.00;101275.91;4991481;28;20033;-80
2022/11/05 01:36:45;;;;;;;11.45;6.93;;;;;;;6.49;100.00;101278.50;5007339;28;20041;-78
2022/11/05 01:39:10;;;;;;;13.88;7.00;;;;;;;6.48;100.00;101282.84;5008550;28;20018;-79
2022/11/05 01:41:36;;;;;;;13.05;6.80;;;;;;;6.46;100.00;101281.28;5005840;28;20042;-79
2022/11/05 01:44:02;;;;;;;12.23;6.43;;;;;;;6.44;100.00;101286.56;4989803;28;20037;-79
2022/11/05 01:46:33;;;;;;;14.13;6.75;;;;;;;6.45;100.00;101292.56;5001329;28;20121;-79
2022/11/05 01:49:26;;;;;;;11.93;6.32;;;;;;;6.44;100.00;101299.44;4986726;28;20530;-78
2022/11/05 01:51:52;;;;;;;10.10;5.82;;;;;;;6.46;100.00;101301.91;5017222;28;20038;-78
2022/11/05 01:54:21;;;;;;;17.23;7.65;;;;;;;6.45;100.00;101303.66;4988253;28;20165;-79
2022/11/05 01:56:53;;;;;;;21.67;9.88;;;;;;;6.47;100.00;101306.13;5003616;28;20104;-79
2022/11/05 01:59:24;;;;;;;29.63;10.23;;;;;;;6.44;100.00;101307.16;5013502;28;20507;-79
2022/11/05 02:01:50;;;;;;;20.27;9.02;;;;;;;6.39;100.00;101304.94;5003894;28;20158;-78
2022/11/05 02:04:29;;;;;;;15.82;7.53;;;;;;;6.39;100.00;101314.44;4987842;28;20081;-79
2022/11/05 02:06:55;;;;;;;11.43;6.30;;;;;;;6.36;100.00;101310.31;5001660;28;20125;-79
2022/11/05 02:09:27;;;;;;;12.10;5.80;;;;;;;6.33;100.00;101314.88;4989487;28;20546;-78
2022/11/05 02:11:52;;;;;;;12.40;6.68;;;;;;;6.25;100.00;101318.03;5009230;28;20039;-78
2022/11/05 02:14:19;;;;;;;15.18;6.20;;;;;;;6.20;100.00;101315.00;5010064;28;20662;-78
2022/11/05 02:16:47;;;;;;;21.42;6.95;;;;;;;6.20;100.00;101315.81;4994557;28;20069;-79
2022/11/05 02:19:46;;;;;;;12.63;6.10;;;;;;;6.15;100.00;101314.53;5007416;28;20457;-79
2022/11/05 02:22:39;;;;;;;11.70;6.43;;;;;;;6.21;100.00;101326.94;4989118;28;20040;-78
2022/11/05 02:25:13;;;;;;;;;;;;;;;6.12;100.00;101315.59;5013458;28;20041;-79
2022/11/05 02:27:57;;;;;;;11.70;6.25;;;;;;;6.11;100.00;101316.50;5007045;28;19925;-79
2022/11/05 02:30:48;;;;;;;14.07;7.90;;;;;;;6.07;100.00;101327.16;5010765;28;20057;-77
2022/11/05 02:33:36;;;;;;;17.33;7.90;;;;;;;6.04;100.00;101320.47;5010869;28;20391;-78
2022/11/05 02:36:17;;;;;;;14.18;8.00;;;;;;;6.00;100.00;101325.03;5009348;28;20045;-79
2022/11/05 02:39:12;;;;;;;12.50;7.88;;;;;;;5.99;100.00;101323.41;5026597;28;20591;-79
2022/11/05 02:42:10;;;;;;;15.10;8.32;;;;;;;5.99;100.00;101320.81;4991119;28;20041;-77
2022/11/05 02:45:00;;;;;;;12.38;7.57;;;;;;;5.95;100.00;101322.00;4991442;28;20045;-78
2022/11/05 02:47:57;;;;;;;11.85;7.95;;;;;;;5.91;100.00;101325.66;4993216;28;20038;-79
2022/11/05 02:50:47;;;;;;;13.52;8.88;;;;;;;5.90;100.00;101315.50;5012303;28;23033;-78
2022/11/05 02:53:19;;;;;;;13.07;8.07;;;;;;;5.90;100.00;101315.50;4993566;28;20121;-79
2022/11/05 02:56:00;;;;;;;14.13;8.52;;;;;;;5.88;100.00;101313.03;5010786;28;20058;-78
2022/11/05 02:58:29;;;;;;;15.75;7.97;;;;;;;5.88;100.00;101314.78;5005938;28;20517;-78
2022/11/05 03:00:56;;;;;;;15.48;7.57;;;;;;;5.87;100.00;101315.72;5013473;28;20056;-78
2022/11/05 03:03:42;;;;;;;13.57;7.63;;;;;;;5.81;100.00;101307.50;5011549;28;20064;-79
2022/11/05 03:06:38;;;;;;;17.67;8.93;;;;;;;5.84;100.00;101316.78;5008306;28;20525;-78
2022/11/05 03:09:24;;;;;;;15.10;8.13;;;;;;;5.77;100.00;101308.66;5004937;28;20069;-79
2022/11/05 03:12:02;;;;;;;15.38;7.65;;;;;;;5.78;100.00;101309.47;5006983;28;20061;-77
2022/11/05 03:14:55;;;;;;;16.10;8.52;;;;;;;5.80;100.00;101311.03;4990491;28;20457;-74
2022/11/05 03:17:32;;;;;;;15.38;8.20;;;;;;;5.76;100.00;101309.59;5009189;28;20065;-78
2022/11/05 03:20:33;;;;;;;14.23;8.80;;;;;;;5.74;100.00;101310.63;5010679;28;20062;-79
2022/11/05 03:23:10;;;;;;;15.80;8.60;;;;;;;5.72;100.00;101309.94;4993255;28;20373;-79
2022/11/05 03:25:47;;;;;;;14.43;8.88;;;;;;;5.72;100.00;101315.91;5005703;28;20046;-78
2022/11/05 03:28:14;;;;;;;12.32;8.38;;;;;;;5.72;100.00;101315.09;5003325;28;20537;-77
2022/11/05 03:30:41;;;;;;;16.75;9.43;;;;;;;5.69;100.00;101315.28;4999831;28;20528;-79
2022/11/05 03:33:12;;;;;;;15.35;8.10;;;;;;;5.65;100.00;101323.25;5009781;28;20189;-80
2022/11/05 03:35:43;;;;;;;19.50;9.98;;;;;;;5.66;100.00;101322.31;5007003;28;20038;-74
2022/11/05 03:38:13;;;;;;;24.38;11.50;;;;;;;5.70;100.00;101327.25;5009276;28;20578;-79
2022/11/05 03:40:41;;;;;;;18.92;10.60;;;;;;;5.69;100.00;101328.16;5010057;28;20080;-79
2022/11/05 03:43:07;;;;;;;15.70;9.75;;;;;;;5.66;100.00;101324.88;5007200;28;20044;-78
2022/11/05 03:45:56;;;;;;;18.35;10.70;;;;;;;5.65;100.00;101330.97;5008868;28;20046;-80
2022/11/05 03:48:26;;;;;;;17.98;9.88;;;;;;;5.59;100.00;101325.44;4993129;28;20060;-77
2022/11/05 03:51:11;;;;;;;17.35;9.93;;;;;;;5.61;100.00;101344.16;5007187;28;20115;-79
2022/11/05 03:53:43;;;;;;;21.73;10.30;;;;;;;5.66;100.00;101336.94;4992848;28;20034;-77
2022/11/05 03:56:17;;;;;;;16.73;10.60;;;;;;;5.65;100.00;101335.28;4999803;28;21332;-80
2022/11/05 03:58:44;;;;;;;17.48;9.52;;;;;;;5.58;100.00;101344.41;5000860;28;20036;-78
2022/11/05 04:01:11;;;;;;;22.63;10.13;;;;;;;5.60;100.00;101347.69;5007766;28;20038;-76
2022/11/05 04:03:37;;;;;;;19.80;11.32;;;;;;;5.55;100.00;101344.59;4992638;28;20037;-78
2022/11/05 04:14:17;;;;;;;19.83;10.18;;;;;;;5.50;100.00;101362.94;5015294;28;20601;-78
2022/11/05 04:24:54;;;;;;;20.30;10.27;;;;;;;5.49;100.00;101369.00;5009384;28;20091;-76
2022/11/05 04:27:20;;;;;;;17.98;10.73;;;;;;;5.52;100.00;101365.38;4989437;28;20519;-79
2022/11/05 04:32:29;;;;;;;25.08;12.20;;;;;;;5.52;100.00;101363.66;5004391;28;20525;-78
2022/11/05 04:34:55;;;;;;;21.65;12.07;;;;;;;5.53;100.00;101365.28;5008727;28;20022;-77
2022/11/05 04:37:20;;;;;;;26.33;11.85;;;;;;;5.47;100.00;101365.72;4990464;28;20108;-74
2022/11/05 04:39:46;;;;;;;28.50;13.43;;;;;;;5.47;100.00;101368.31;4991569;28;20034;-77
2022/11/05 04:42:11;;;;;;;23.88;12.45;;;;;;;5.41;100.00;101368.75;4988875;28;20042;-75
2022/11/05 04:44:37;;;;;;;25.38;13.40;;;;;;;5.45;100.00;101376.13;4990434;28;20029;-76
2022/11/05 04:47:02;;;;;;;29.20;13.43;;;;;;;5.40;100.00;101377.38;5021834;28;20049;-78
2022/11/05 04:49:28;;;;;;;22.75;13.43;;;;;;;5.54;100.00;101378.97;4990265;28;20038;-77
2022/11/05 04:51:53;;;;;;;26.13;14.00;;;;;;;5.49;100.00;101375.91;5007210;28;20041;-79
2022/11/05 04:54:18;;;;;;;28.58;13.13;;;;;;;5.47;100.00;101379.41;5011972;28;20034;-78
2022/11/05 04:56:44;;;;;;;24.25;12.55;;;;;;;5.38;100.00;101377.47;5004877;28;20041;-74
2022/11/05 04:59:09;;;;;;;29.42;13.77;;;;;;;5.37;100.00;101377.59;4992071;28;20025;-78
2022/11/05 05:01:35;;;;;;;25.27;13.10;;;;;;;5.33;100.00;101384.72;4989496;28;20038;-76
2022/11/05 05:04:00;;;;;;;39.70;14.80;;;;;;;5.37;100.00;101390.44;5005697;28;20471;-77
2022/11/05 05:06:26;;;;;;;30.10;13.93;;;;;;;5.35;100.00;101387.16;4991857;28;20069;-78
2022/11/05 05:08:51;;;;;;;29.00;14.43;;;;;;;5.29;100.00;101385.03;4991950;28;20038;-78
2022/11/05 05:11:19;;;;;;;30.83;14.75;;;;;;;5.28;100.00;101385.97;4988278;28;20046;-77
2022/11/05 05:13:44;;;;;;;30.48;15.27;;;;;;;5.29;100.00;101385.84;4992002;28;20109;-76
2022/11/05 05:16:19;;;;;;;28.75;14.27;;;;;;;5.26;100.00;101388.66;4990283;28;20392;-78
2022/11/05 05:18:44;;;;;;;31.52;15.18;;;;;;;5.32;100.00;101392.53;5007365;28;20107;-77
2022/11/05 05:23:53;;;;;;;30.83;15.45;;;;;;;5.26;100.00;101389.47;5006564;28;20026;-79
2022/11/05 05:26:19;;;;;;;30.88;14.25;;;;;;;5.29;100.00;101387.59;4985813;28;20052;-76
2022/11/05 05:28:44;;;;;;;29.75;15.60;;;;;;;5.27;100.00;101395.41;5008007;28;20026;-77
2022/11/05 05:31:10;;;;;;;30.55;15.40;;;;;;;5.25;100.00;101394.69;5009856;28;20037;-76
2022/11/05 05:33:35;;;;;;;29.13;15.05;;;;;;;5.24;100.00;101399.03;4989983;28;20475;-76
2022/11/05 05:36:01;;;;;;;26.05;14.52;;;;;;;5.21;100.00;101398.41;4988815;28;20083;-77
2022/11/05 05:38:28;;;;;;;28.73;16.27;;;;;;;5.20;100.00;101396.78;5010194;28;20054;-76
2022/11/05 05:40:58;;;;;;;30.20;14.25;;;;;;;5.17;100.00;101402.13;5005696;28;20126;-74
2022/11/05 05:43:23;;;;;;;26.55;15.55;;;;;;;5.15;100.00;101409.94;5003984;28;20034;-77
2022/11/05 05:45:49;;;;;;;26.85;14.77;;;;;;;5.19;100.00;101406.22;5003791;28;20104;-76
2022/11/05 05:48:14;;;;;;;29.65;15.23;;;;;;;5.21;100.00;101406.13;5008093;28;20041;-77
2022/11/05 05:50:40;;;;;;;27.60;15.05;;;;;;;5.15;100.00;101399.66;5004821;28;20218;-74
2022/11/05 05:53:06;;;;;;;35.60;15.73;;;;;;;5.12;100.00;101402.44;5019729;28;20041;-76
2022/11/05 05:55:31;;;;;;;28.00;15.15;;;;;;;5.15;100.00;101412.53;4991244;28;20046;-76
2022/11/05 05:57:57;;;;;;;28.42;15.10;;;;;;;5.14;100.00;101416.03;5005430;28;20065;-78
2022/11/05 06:00:22;;;;;;;34.55;15.60;;;;;;;5.10;100.00;101404.28;5005820;28;20056;-76
2022/11/05 06:02:48;;;;;;;29.20;15.30;;;;;;;5.06;100.00;101405.44;5005272;28;20042;-78
2022/11/05 06:05:13;;;;;;;27.23;14.88;;;;;;;5.07;100.00;101402.75;5001426;28;20038;-77
2022/11/05 06:07:38;;;;;;;26.58;14.32;;;;;;;5.07;100.00;101410.47;4988199;28;20104;-77
2022/11/05 06:10:05;;;;;;;30.15;14.55;;;;;;;5.12;100.00;101417.84;5007048;28;20045;-76
2022/11/05 06:12:30;;;;;;;30.88;14.95;;;;;;;5.04;100.00;101413.25;5004414;28;20129;-78
2022/11/05 06:14:55;;;;;;;29.33;14.35;;;;;;;5.01;100.00;101416.03;5004344;28;20030;-77
2022/11/05 06:17:21;;;;;;;28.63;14.50;;;;;;;5.00;100.00;101419.53;4987251;28;20097;-73
2022/11/05 06:19:46;;;;;;;24.55;14.35;;;;;;;4.99;100.00;101423.03;5006300;28;20029;-78
2022/11/05 06:22:12;;;;;;;34.22;16.27;;;;;;;5.00;100.00;101429.00;4988346;28;20061;-75
2022/11/05 06:24:37;;;;;;;25.92;13.40;;;;;;;5.02;100.00;101427.13;5019717;28;20037;-77
2022/11/05 06:27:03;;;;;;;27.65;12.88;;;;;;;5.11;100.00;101431.66;5003960;28;20063;-76
2022/11/05 06:29:29;;;;;;;30.52;15.13;;;;;;;5.01;100.00;101434.03;4990273;28;20038;-73
2022/11/05 06:31:54;;;;;;;32.88;14.98;;;;;;;4.98;100.00;101436.00;5005057;28;20034;-76
2022/11/05 06:34:20;;;;;;;29.92;13.60;;;;;;;5.00;100.00;101445.22;5004623;28;20038;-77
2022/11/05 06:36:45;;;;;;;26.83;13.68;;;;;;;4.96;100.00;101446.38;5002777;28;20038;-75
2022/11/05 06:39:11;;;;;;;22.58;11.95;;;;;;;4.94;100.00;101452.56;5007335;28;20077;-76
2022/11/05 06:41:37;;;;;;;26.65;13.93;;;;;;;4.95;100.00;101455.00;5004300;28;20045;-77
2022/11/05 06:44:02;;;;;;;24.90;12.70;;;;;;;4.95;100.00;101460.13;4989833;28;20033;-76
2022/11/05 06:46:28;;;;;;;28.40;13.05;;;;;;;4.96;100.00;101471.25;5005494;28;20038;-75
2022/11/05 06:48:53;;;;;;;23.08;11.55;;;;;;;4.93;100.00;101471.47;5007063;28;20045;-77
2022/11/05 06:51:19;;;;;;;28.77;13.98;;;;;;;4.94;100.00;101470.53;4988146;28;20044;-77
2022/11/05 06:53:45;;;;;;;25.42;13.02;;;;;;;4.91;100.00;101474.13;5022101;28;20037;-77
2022/11/05 06:56:10;;;;;;;23.63;12.60;;;;;;;4.92;100.00;101469.84;4984255;28;20411;-75
2022/11/05 06:58:36;;;;;;;29.23;12.05;;;;;;;4.93;100.00;101476.59;4986557;28;20105;-75
2022/11/05 07:01:07;;;;;;;26.63;11.88;;;;;;;4.91;100.00;101476.69;4992210;28;20112;-76
2022/11/05 07:03:33;;;;;;;21.77;12.10;;;;;;;4.92;100.00;101480.09;5007330;28;20033;-76
2022/11/05 07:05:59;;;;;;;26.08;12.90;;;;;;;4.92;100.00;101486.06;5011511;28;20041;-76
2022/11/05 07:08:26;;;;;;;22.98;12.25;;;;;;;4.96;100.00;101484.94;5009589;28;20426;-77
2022/11/05 07:10:51;;;;;;;23.17;12.02;;;;;;;4.99;100.00;101486.47;5005631;28;20046;-77
2022/11/05 07:13:17;;;;;;;27.85;11.98;;;;;;;5.00;100.00;101482.97;5003793;28;20791;-77
2022/11/05 07:15:42;;;;;;;28.48;12.80;;;;;;;5.03;100.00;101493.88;4992156;28;20042;-73
2022/11/05 07:18:08;;;;;;;26.13;11.80;;;;;;;5.03;100.00;101493.06;4992242;28;20045;-75
2022/11/05 07:20:34;;;;;;;21.33;11.23;;;;;;;5.05;100.00;101496.34;5007351;28;20049;-74
2022/11/05 07:23:08;;;;;;;27.67;12.77;;;;;;;5.04;100.00;101495.50;5002901;28;20058;-76
2022/11/05 07:25:34;;;;;;;23.52;12.40;;;;;;;5.11;100.00;101500.25;4992777;28;20096;-77
2022/11/05 07:28:00;;;;;;;18.67;11.25;;;;;;;5.11;100.00;101497.69;5009031;28;20045;-75
2022/11/05 07:30:27;;;;;;;25.52;12.43;;;;;;;5.12;100.00;101495.00;5007890;28;20038;-78
2022/11/05 07:32:52;;;;;;;26.40;12.63;;;;;;;5.17;100.00;101497.28;5010547;28;20391;-78
2022/11/05 07:35:18;;;;;;;25.15;12.07;;;;;;;5.36;100.00;101504.56;4991995;28;20048;-75
2022/11/05 07:37:44;;;;;;;25.73;13.88;;;;;;;5.29;100.00;101506.72;5012158;28;20518;-76
2022/11/05 07:40:11;;;;;;;24.88;10.82;;;;;;;5.32;100.00;101505.69;4992076;28;20085;-76
2022/11/05 07:42:41;;;;;;;26.48;13.35;;;;;;;5.31;100.00;101504.84;5008884;28;20053;-78
2022/11/05 07:45:07;;;;;;;41.65;15.57;;;;;;;5.41;100.00;101510.22;5009425;28;20038;-76
2022/11/05 07:47:35;;;;;;;34.45;15.48;;;;;;;5.42;100.00;101511.84;4993037;28;20044;-77
2022/11/05 07:50:01;;;;;;;23.27;12.50;;;;;;;5.42;100.00;101515.22;5005743;28;20491;-79
2022/11/05 07:52:26;;;;;;;26.33;12.40;;;;;;;5.45;100.00;101515.03;5008929;28;20049;-77
2022/11/05 07:54:52;;;;;;;21.40;9.82;;;;;;;5.51;100.00;101516.38;4992046;28;20445;-77
2022/11/05 07:57:17;;;;;;;25.70;11.50;;;;;;;5.62;100.00;101518.19;4991866;28;20041;-78
2022/11/05 07:59:43;;;;;;;27.83;12.07;;;;;;;5.66;100.00;101519.63;5005353;28;20041;-79
2022/11/05 08:02:09;;;;;;;24.25;10.32;;;;;;;5.70;100.00;101517.66;5011313;28;20049;-79
2022/11/05 08:04:34;;;;;;;19.33;10.02;;;;;;;5.95;100.00;101527.94;5009684;28;20206;-79
2022/11/05 08:07:00;;;;;;;21.73;8.93;;;;;;;6.03;100.00;101519.66;5010656;28;20058;-80
2022/11/05 08:09:25;;;;;;;22.75;10.55;;;;;;;6.29;100.00;101515.25;4995344;28;20037;-80
2022/11/05 08:11:51;;;;;;;16.70;9.43;;;;;;;6.65;100.00;101513.50;5011493;28;20084;-79
2022/11/05 08:14:17;;;;;;;26.80;14.35;;;;;;;7.07;100.00;101512.97;4996024;28;20510;-80
2022/11/05 08:16:42;;;;;;;22.25;10.80;;;;;;;7.40;100.00;101513.00;4996459;28;20034;-79
2022/11/05 08:19:07;;;;;;;21.88;8.90;;;;;;;7.69;100.00;101509.09;5009939;28;20040;-80
2022/11/05 08:21:33;;;;;;;28.08;12.90;;;;;;;8.09;97.15;101505.94;4995509;28;20060;-78
2022/11/05 08:23:58;;;;;;;18.95;9.63;;;;;;;8.37;94.52;101509.72;4995254;28;20041;-79
2022/11/05 08:26:24;;;;;;;26.15;9.77;;;;;;;8.75;93.22;101511.78;5010148;28;20058;-79
2022/11/05 08:28:49;;;;;;;23.30;9.32;;;;;;;8.98;90.84;101506.47;5011394;28;20030;-80
2022/11/05 08:31:16;;;;;;;17.40;8.15;;;;;;;9.33;88.79;101494.91;5009392;28;20037;-81
2022/11/05 08:33:42;;;;;;;16.20;8.07;;;;;;;9.42;87.21;101508.81;4996848;28;20042;-78
2022/11/05 08:36:07;;;;;;;21.08;8.52;;;;;;;9.44;85.90;101505.19;4995744;28;20067;-79
2022/11/05 08:38:33;;;;;;;23.38;8.40;;;;;;;9.35;85.83;101511.94;5016761;28;20045;-80
2022/11/05 08:40:59;;;;;;;13.45;7.22;;;;;;;9.50;85.80;101502.06;4996596;28;20050;-80
2022/11/05 08:43:24;;;;;;;17.52;7.45;;;;;;;9.67;85.85;101504.97;4995771;28;20034;-78
2022/11/05 08:45:50;;;;;;;18.30;7.95;;;;;;;9.62;84.32;101500.16;4993784;28;20064;-78
2022/11/05 08:48:17;;;;;;;23.00;7.35;;;;;;;9.50;85.23;101511.59;4996106;28;20483;-81
2022/11/05 08:50:45;;;;;;;18.08;9.10;;;;;;;9.35;86.31;101518.91;5011905;28;20458;-79
2022/11/05 08:53:11;;;;;;;18.98;8.63;;;;;;;9.36;85.81;101517.94;5006440;28;20053;-78
2022/11/05 08:55:37;;;;;;;16.45;7.60;;;;;;;9.20;87.50;101517.63;5010454;28;20045;-79
2022/11/05 08:58:13;;;;;;;19.48;7.55;;;;;;;9.03;88.50;101517.25;5009671;28;20125;-78
2022/11/05 09:00:39;;;;;;;12.05;7.63;;;;;;;8.91;89.31;101518.25;4994823;28;20046;-79
2022/11/05 09:03:06;;;;;;;17.13;7.68;;;;;;;8.72;90.24;101517.22;5008625;28;20046;-78
2022/11/05 09:05:36;;;;;;;15.57;6.75;;;;;;;8.74;90.48;101512.75;5012126;28;20046;-80
2022/11/05 09:08:04;;;;;;;18.77;8.32;;;;;;;8.66;91.30;101522.06;5009139;28;20526;-80
2022/11/05 09:10:29;;;;;;;19.80;8.05;;;;;;;8.50;92.28;101528.50;4996144;28;20508;-79
2022/11/05 09:12:55;;;;;;;23.33;8.65;;;;;;;8.44;92.10;101523.81;4992055;28;20030;-79
2022/11/05 09:15:22;;;;;;;15.73;8.73;;;;;;;8.44;92.42;101528.16;5011086;28;20467;-81
2022/11/05 09:17:47;;;;;;;19.60;9.15;;;;;;;8.44;92.67;101525.56;5006499;28;20049;-80
2022/11/05 09:20:12;;;;;;;18.25;8.45;;;;;;;8.41;93.01;101529.19;5009508;28;20109;-80
2022/11/05 09:22:38;;;;;;;17.05;8.63;;;;;;;8.42;93.13;101532.63;5009134;28;20453;-77
2022/11/05 09:25:04;;;;;;;16.27;7.90;;;;;;;8.39;93.85;101531.91;5009057;28;20442;-78
2022/11/05 09:27:30;;;;;;;17.90;9.40;;;;;;;8.59;93.77;101529.50;4994986;28;20045;-79
2022/11/05 09:29:56;;;;;;;16.85;7.00;;;;;;;8.48;93.67;101530.38;5007536;28;20064;-80
2022/11/05 09:32:22;;;;;;;18.08;8.40;;;;;;;8.44;93.39;101536.75;5009009;28;20066;-80
2022/11/05 09:34:48;;;;;;;13.55;7.05;;;;;;;8.50;93.70;101532.84;5007105;28;20038;-79
2022/11/05 09:37:14;;;;;;;18.80;8.05;;;;;;;8.57;92.71;101537.41;5009943;28;20076;-77
2022/11/05 09:39:40;;;;;;;19.65;7.65;;;;;;;8.57;92.49;101534.00;5006738;28;20034;-78
2022/11/05 09:42:12;;;;;;;23.35;7.50;;;;;;;8.74;92.26;101541.19;5009086;28;20042;-79
2022/11/05 09:44:42;;;;;;;12.77;7.20;;;;;;;8.69;91.34;101542.50;5010019;28;20022;-79
2022/11/05 09:47:16;;;;;;;20.50;8.95;;;;;;;8.74;91.99;101538.59;5007344;28;20049;-80
2022/11/05 09:49:48;;;;;;;20.30;8.65;;;;;;;8.71;92.08;101540.63;4994198;28;20038;-79
2022/11/05 09:52:20;;;;;;;20.65;9.80;;;;;;;8.70;92.75;101538.97;4989471;28;20137;-81
2022/11/05 09:54:47;;;;;;;24.00;9.88;;;;;;;8.64;92.50;101534.28;5010453;28;20040;-79
2022/11/05 09:57:20;;;;;;;20.42;8.68;;;;;;;8.68;92.26;101541.69;5005009;28;20042;-79
2022/11/05 09:59:54;;;;;;;;;;;;;;;8.80;90.98;101539.03;5009657;28;20057;-78
2022/11/05 10:02:25;;;;;;;16.50;6.88;;;;;;;8.97;91.59;101541.06;5009301;28;20421;-81
2022/11/05 10:04:55;;;;;;;15.90;6.85;;;;;;;8.93;91.40;101543.06;5022151;28;20041;-79
2022/11/05 10:07:25;;;;;;;22.33;9.25;;;;;;;8.91;90.72;101534.63;5023083;28;20038;-80
2022/11/05 10:09:55;;;;;;;13.73;6.43;;;;;;;8.94;89.69;101539.53;5004446;28;20037;-79
2022/11/05 10:12:38;;;;;;;16.55;7.18;;;;;;;8.99;90.53;101539.16;5010102;28;20132;-83
2022/11/05 10:15:06;;;;;;;;;;;;;;;8.98;91.31;101537.50;5009431;28;20037;-81
2022/11/05 10:17:35;;;;;;;16.13;8.20;;;;;;;9.02;91.28;101544.06;5008086;28;19922;-79
2022/11/05 10:20:30;;;;;;;17.25;7.35;;;;;;;9.11;90.27;101548.47;5009385;28;20030;-81
2022/11/05 10:23:00;;;;;;;19.85;6.20;;;;;;;9.04;90.94;101552.53;4989469;28;20059;-79
2022/11/05 10:25:33;;;;;;;13.88;7.00;;;;;;;9.22;91.62;101539.81;5004656;28;20105;-78
2022/11/05 10:27:59;;;;;;;19.80;6.45;;;;;;;9.13;91.55;101546.56;5007464;28;20447;-82
2022/11/05 10:30:24;;;;;;;11.88;6.32;;;;;;;9.28;91.25;101543.66;5010254;28;20081;-79
2022/11/05 10:32:57;;;;;;;15.77;6.63;;;;;;;9.28;89.33;101551.44;5013156;28;20050;-78
2022/11/05 10:35:25;;;;;;;13.95;5.65;;;;;;;9.23;89.67;101549.22;4996019;28;20056;-82
2022/11/05 10:37:52;;;;;;;15.32;6.10;;;;;;;9.17;89.10;101552.31;5013596;28;20049;-81
2022/11/05 10:40:42;;;;;;;17.48;6.85;;;;;;;9.37;89.44;101547.25;5014619;28;20036;-79
2022/11/05 10:43:28;;;;;;;14.18;5.22;;;;;;;9.30;89.47;101555.50;5016648;28;20033;-81
2022/11/05 10:46:14;;;;;;;13.20;5.13;;;;;;;9.40;89.09;101560.75;4997262;28;20048;-81
2022/11/05 10:48:49;;;;;;;14.43;5.93;;;;;;;9.50;88.29;101558.19;5014405;28;20030;-81
2022/11/05 10:51:15;;;;;;;15.02;5.70;;;;;;;9.59;87.12;101556.59;5011106;28;20132;-81
2022/11/05 10:53:50;;;;;;;14.07;5.20;;;;;;;9.42;88.12;101552.84;5016238;28;20072;-81
2022/11/05 10:56:36;;;;;;;17.00;5.35;;;;;;;9.49;88.21;101559.13;5014678;28;20053;-80
2022/11/05 10:59:04;;;;;;;15.82;5.30;;;;;;;9.54;85.99;101560.38;4998668;28;20046;-81
2022/11/05 11:01:31;;;;;;;9.60;4.85;;;;;;;9.52;86.97;101564.06;5024329;28;20049;-79
2022/11/05 11:04:11;;;;;;;16.20;5.05;;;;;;;9.54;86.18;101562.16;5001305;28;20052;-79
2022/11/05 11:06:43;;;;;;;18.00;6.65;;;;;;;9.50;87.28;101555.63;5012935;28;20113;-80
2022/11/05 11:09:19;;;;;;;9.50;4.30;;;;;;;9.49;88.60;101553.97;5013144;28;20037;-81
2022/11/05 11:11:59;;;;;;;10.60;5.63;;;;;;;9.63;87.01;101561.38;5008850;28;20034;-80
2022/11/05 11:14:25;;;;;;;17.58;5.70;;;;;;;9.64;86.11;101557.00;5012549;28;20030;-81
2022/11/05 11:16:55;;;;;;;13.13;5.15;;;;;;;9.63;86.64;101560.56;5007669;28;20042;-82
2022/11/05 11:19:30;;;;;;;37.67;15.95;;;;;;;9.72;87.21;101554.59;5014736;28;20033;-80
2022/11/05 11:22:02;;;;;;;19.42;7.25;;;;;;;9.85;86.51;101559.53;4998462;28;20042;-80
2022/11/05 11:24:28;;;;;;;19.60;8.02;;;;;;;9.89;85.91;101564.31;5014540;28;20072;-81
2022/11/05 11:27:01;;;;;;;17.92;7.35;;;;;;;9.89;86.61;101564.31;4997490;28;20038;-79
2022/11/05 11:29:29;;;;;;;38.85;14.02;;;;;;;10.01;87.00;101566.81;5015375;28;20096;-81
2022/11/05 11:31:58;;;;;;;20.25;9.02;;;;;;;10.18;86.79;101560.97;4991027;28;20053;-81
2022/11/05 11:34:34;;;;;;;12.48;6.03;;;;;;;10.28;84.80;101564.41;5010522;28;20038;-82
2022/11/05 11:37:13;;;;;;;15.15;7.65;;;;;;;10.37;84.50;101565.38;5015613;28;20042;-80
2022/11/05 11:39:39;;;;;;;11.73;6.18;;;;;;;10.35;83.76;101564.69;4998619;28;20477;-80
2022/11/05 11:42:15;;;;;;;11.80;7.03;;;;;;;10.28;83.82;101554.03;5021354;28;20038;-81
2022/11/05 11:44:43;;;;;;;11.73;6.35;;;;;;;10.22;84.95;101554.53;4996419;28;20106;-79
2022/11/05 11:47:13;;;;;;;15.23;6.35;;;;;;;10.39;83.79;101562.66;5015840;28;20508;-80
2022/11/05 11:49:44;;;;;;;14.85;5.47;;;;;;;10.42;83.62;101562.38;5030156;28;20037;-81
2022/11/05 11:52:13;;;;;;;11.32;4.68;;;;;;;10.31;82.31;101561.53;5009368;28;20068;-80
2022/11/05 11:54:39;;;;;;;12.45;5.78;;;;;;;10.28;83.46;101561.81;4996525;28;20316;-80
2022/11/05 11:57:28;;;;;;;10.80;5.00;;;;;;;10.46;82.87;101548.19;4997324;28;20041;-79
2022/11/05 11:59:55;;;;;;;12.90;5.38;;;;;;;10.41;83.30;101556.34;5007497;28;20025;-83
2022/11/05 12:02:39;;;;;;;12.88;4.25;;;;;;;10.35;81.78;101559.50;5008521;28;20929;-81
2022/11/05 12:05:29;;;;;;;12.45;4.88;;;;;;;10.58;82.02;101556.63;5004349;28;20065;-82
2022/11/05 12:08:04;;;;;;;9.82;4.55;;;;;;;10.49;81.85;101555.66;4991882;28;20088;-78
2022/11/05 12:10:57;;;;;;;12.38;5.35;;;;;;;10.51;82.18;101556.38;5013611;28;20046;-81
2022/11/05 12:13:47;;;;;;;11.43;5.25;;;;;;;10.51;81.69;101551.19;5010360;28;20034;-81
2022/11/05 12:16:21;;;;;;;10.80;4.20;;;;;;;10.49;81.43;101545.31;5006333;28;20611;-80
2022/11/05 12:19:02;;;;;;;19.20;5.53;;;;;;;10.62;81.77;101545.84;4991986;28;20380;-80